createdAt,value
2023-03-22T00:02:10.316Z,13.73
2023-03-22T00:04:36.938Z,13.70
2023-03-22T00:07:03.565Z,17.80
2023-03-22T00:09:30.870Z,15.23
2023-03-22T00:11:57.519Z,14.43
2023-03-22T00:14:24.283Z,12.05
2023-03-22T00:16:51.103Z,13.25
2023-03-22T00:19:17.742Z,13.68
2023-03-22T00:21:44.959Z,20.38
2023-03-22T00:24:11.622Z,13.20
2023-03-22T00:26:38.263Z,12.57
2023-03-22T00:29:05.650Z,13.98
2023-03-22T00:31:32.479Z,11.55
2023-03-22T00:33:59.130Z,11.88
2023-03-22T00:36:26.032Z,13.85
2023-03-22T00:38:52.698Z,11.02
2023-03-22T00:41:21.823Z,9.27
2023-03-22T00:43:50.270Z,11.18
2023-03-22T00:46:19.889Z,12.07
2023-03-22T00:48:46.938Z,11.63
2023-03-22T00:51:14.575Z,9.60
2023-03-22T00:53:43.356Z,11.98
2023-03-22T00:56:13.939Z,9.07
2023-03-22T00:58:42.132Z,12.32
2023-03-22T01:01:09.288Z,9.02
2023-03-22T01:03:36.142Z,6.82
2023-03-22T01:06:03.639Z,17.00
2023-03-22T01:08:33.439Z,6.85
2023-03-22T01:11:01.378Z,7.45
2023-03-22T01:13:29.057Z,7.57
2023-03-22T01:15:56.271Z,9.57
2023-03-22T01:18:23.018Z,7.75
2023-03-22T01:20:49.789Z,6.85
2023-03-22T01:23:16.509Z,14.23
2023-03-22T01:25:43.181Z,6.40
2023-03-22T01:28:09.889Z,10.73
2023-03-22T01:30:38.639Z,10.15
2023-03-22T01:33:07.577Z,5.50
2023-03-22T01:35:36.041Z,16.00
2023-03-22T01:38:03.184Z,9.52
2023-03-22T01:40:29.893Z,6.28
2023-03-22T01:42:56.885Z,6.75
2023-03-22T01:45:50.601Z,11.75
2023-03-22T01:48:28.114Z,9.00
2023-03-22T01:51:24.859Z,5.68
2023-03-22T01:54:04.009Z,8.20
2023-03-22T01:56:34.690Z,11.00
2023-03-22T01:59:02.191Z,7.85
2023-03-22T02:01:30.312Z,22.42
2023-03-22T02:04:20.124Z,8.38
2023-03-22T02:06:48.276Z,6.78
2023-03-22T02:09:22.048Z,8.20
2023-03-22T02:12:12.279Z,6.88
2023-03-22T02:15:15.578Z,11.13
2023-03-22T02:18:23.845Z,6.32
2023-03-22T02:21:18.653Z,4.88
2023-03-22T02:24:23.523Z,6.38
2023-03-22T02:27:22.680Z,6.75
2023-03-22T02:30:18.031Z,9.98
2023-03-22T02:33:35.833Z,4.63
2023-03-22T02:36:49.000Z,6.68
2023-03-22T03:10:41.491Z,6.38
2023-03-22T03:13:17.016Z,7.05
2023-03-22T03:15:52.682Z,11.30
2023-03-22T03:18:48.524Z,6.40
2023-03-22T03:21:42.437Z,7.45
2023-03-22T03:24:38.974Z,11.10
2023-03-22T03:27:20.162Z,7.22
2023-03-22T03:30:00.530Z,6.13
2023-03-22T03:32:35.158Z,6.72
2023-03-22T03:35:10.300Z,6.43
2023-03-22T03:37:52.599Z,7.72
2023-03-22T03:40:28.027Z,8.60
2023-03-22T03:42:57.883Z,5.57
2023-03-22T03:45:25.475Z,9.02
2023-03-22T03:47:57.284Z,4.57
2023-03-22T03:50:25.839Z,5.28
2023-03-22T03:52:54.315Z,468.15
2023-03-22T03:55:23.216Z,510.92
2023-03-22T03:57:49.937Z,152.75
2023-03-22T04:00:17.337Z,62.55
2023-03-22T04:02:44.495Z,30.58
2023-03-22T04:05:12.770Z,18.33
2023-03-22T04:07:39.678Z,15.10
2023-03-22T04:10:07.469Z,12.93
2023-03-22T04:12:34.363Z,10.70
2023-03-22T04:15:01.063Z,11.75
2023-03-22T04:17:32.075Z,11.32
2023-03-22T04:19:58.892Z,7.45
2023-03-22T04:22:26.344Z,5.13
2023-03-22T04:24:53.004Z,7.68
2023-03-22T04:27:22.217Z,8.43
2023-03-22T04:29:48.789Z,7.07
2023-03-22T04:32:16.911Z,11.20
2023-03-22T04:34:43.589Z,8.20
2023-03-22T04:37:10.263Z,6.82
2023-03-22T04:39:37.124Z,7.00
2023-03-22T04:42:03.882Z,6.63
2023-03-22T04:44:30.680Z,8.80
2023-03-22T04:46:57.564Z,7.97
2023-03-22T04:49:24.627Z,8.32
2023-03-22T04:51:51.853Z,7.70
2023-03-22T04:54:18.508Z,10.10
2023-03-22T04:56:45.275Z,9.05
2023-03-22T04:59:11.940Z,11.63
2023-03-22T05:01:40.541Z,8.93
2023-03-22T05:04:07.233Z,10.70
2023-03-22T05:06:34.282Z,10.32
2023-03-22T05:09:01.310Z,14.20
2023-03-22T05:11:28.154Z,8.32
2023-03-22T05:13:55.504Z,7.32
2023-03-22T05:16:22.493Z,11.43
2023-03-22T05:18:49.914Z,10.02
2023-03-22T05:21:21.981Z,8.02
2023-03-22T05:23:52.149Z,7.78
2023-03-22T05:26:20.545Z,7.90
2023-03-22T05:28:47.167Z,10.27
2023-03-22T05:31:15.547Z,8.90
2023-03-22T05:33:42.334Z,11.57
2023-03-22T05:36:11.244Z,6.65
2023-03-22T05:38:38.426Z,11.50
2023-03-22T05:41:05.765Z,10.75
2023-03-22T05:43:32.808Z,7.53
2023-03-22T05:45:59.688Z,11.00
2023-03-22T05:48:26.298Z,9.93
2023-03-22T05:50:52.913Z,8.57
2023-03-22T05:53:19.571Z,12.63
2023-03-22T05:55:46.199Z,13.80
2023-03-22T05:58:12.975Z,6.65
2023-03-22T06:00:40.294Z,12.05
2023-03-22T06:03:07.921Z,30.05
2023-03-22T06:05:36.612Z,50.40
2023-03-22T06:08:04.065Z,20.33
2023-03-22T06:10:30.937Z,35.08
2023-03-22T06:12:57.586Z,52.72
2023-03-22T06:15:24.341Z,53.88
2023-03-22T06:17:51.350Z,72.68
2023-03-22T06:20:18.300Z,47.22
2023-03-22T06:22:44.998Z,36.75
2023-03-22T06:25:11.849Z,52.88
2023-03-22T06:27:38.515Z,30.80
2023-03-22T06:30:06.342Z,33.85
2023-03-22T06:32:32.971Z,35.50
2023-03-22T06:35:15.634Z,28.40
2023-03-22T06:37:42.463Z,17.38
2023-03-22T06:40:09.999Z,21.85
2023-03-22T06:42:37.056Z,17.80
2023-03-22T06:45:04.656Z,14.90
2023-03-22T06:47:31.392Z,14.15
2023-03-22T06:49:58.215Z,9.90
2023-03-22T06:52:24.989Z,10.38
2023-03-22T06:54:51.597Z,7.00
2023-03-22T06:57:18.175Z,7.28
2023-03-22T06:59:44.712Z,6.80
2023-03-22T07:02:13.057Z,4.07
2023-03-22T07:04:39.661Z,9.25
2023-03-22T07:07:06.285Z,6.68
2023-03-22T07:09:32.898Z,5.88
2023-03-22T07:11:59.506Z,5.25
2023-03-22T07:14:26.226Z,4.97
2023-03-22T07:16:52.773Z,26.63
2023-03-22T07:19:19.433Z,16.23
2023-03-22T07:21:46.023Z,7.18
2023-03-22T07:24:13.840Z,6.95
2023-03-22T07:26:41.029Z,7.15
2023-03-22T07:29:07.644Z,7.95
2023-03-22T07:31:36.464Z,5.82
2023-03-22T07:34:04.040Z,9.60
2023-03-22T07:36:31.035Z,7.32
2023-03-22T07:38:58.021Z,6.15
2023-03-22T07:41:25.849Z,6.93
2023-03-22T07:43:58.249Z,7.35
2023-03-22T07:46:26.805Z,8.48
2023-03-22T07:48:53.471Z,5.93
2023-03-22T07:51:20.383Z,7.20
2023-03-22T07:53:47.098Z,5.60
2023-03-22T07:56:13.958Z,7.85
2023-03-22T07:58:40.728Z,7.05
2023-03-22T08:01:10.026Z,4.90
2023-03-22T08:03:37.666Z,6.40
2023-03-22T08:06:08.113Z,6.60
2023-03-22T08:08:36.997Z,7.32
2023-03-22T08:11:07.783Z,5.15
2023-03-22T08:13:34.536Z,7.90
2023-03-22T08:16:01.741Z,14.13
2023-03-22T08:18:28.392Z,7.18
2023-03-22T08:20:59.891Z,12.32
2023-03-22T08:23:40.524Z,10.90
2023-03-22T08:26:08.773Z,8.73
2023-03-22T08:28:35.604Z,7.35
2023-03-22T08:31:02.402Z,8.35
2023-03-22T08:33:29.107Z,8.65
2023-03-22T08:36:10.927Z,5.40
2023-03-22T08:38:37.802Z,6.17
2023-03-22T08:41:04.769Z,7.47
2023-03-22T08:43:31.406Z,14.63
2023-03-22T08:45:58.375Z,7.18
2023-03-22T08:48:25.330Z,9.05
2023-03-22T08:50:52.106Z,7.70
2023-03-22T08:53:18.726Z,10.30
2023-03-22T08:55:45.349Z,8.77
2023-03-22T08:58:16.557Z,11.25
2023-03-22T09:00:49.095Z,10.65
2023-03-22T09:03:17.077Z,13.95
2023-03-22T09:05:44.074Z,8.95
2023-03-22T09:08:18.646Z,12.10
2023-03-22T09:10:51.953Z,11.35
2023-03-22T09:13:19.980Z,10.85
2023-03-22T09:15:47.271Z,15.45
2023-03-22T09:18:14.636Z,8.88
2023-03-22T09:20:41.470Z,11.00
2023-03-22T09:23:08.237Z,12.48
2023-03-22T09:25:34.965Z,12.77
2023-03-22T09:28:02.215Z,13.35
2023-03-22T09:30:28.856Z,11.25
2023-03-22T09:32:55.596Z,10.07
2023-03-22T09:35:22.774Z,10.75
2023-03-22T09:37:49.550Z,8.70
2023-03-22T09:40:17.791Z,11.20
2023-03-22T09:42:48.077Z,10.73
2023-03-22T09:45:19.336Z,9.25
2023-03-22T09:47:48.924Z,10.23
2023-03-22T09:50:20.919Z,10.93
2023-03-22T09:52:48.026Z,13.13
2023-03-22T09:55:41.630Z,12.75
2023-03-22T09:58:37.535Z,8.27
2023-03-22T10:01:21.121Z,10.15
2023-03-22T10:04:22.070Z,13.77
2023-03-22T10:06:59.829Z,9.30
2023-03-22T10:09:35.282Z,12.00
2023-03-22T10:12:30.118Z,11.70
2023-03-22T10:15:10.494Z,17.40
2023-03-22T10:17:39.797Z,70.32
2023-03-22T10:20:28.704Z,65.20
2023-03-22T10:22:58.408Z,19.33
2023-03-22T10:25:37.206Z,12.38
2023-03-22T10:28:16.352Z,14.65
2023-03-22T10:30:45.270Z,10.30
2023-03-22T10:33:19.414Z,9.52
2023-03-22T10:35:47.055Z,13.50
2023-03-22T10:38:22.685Z,9.20
2023-03-22T10:40:50.988Z,7.22
2023-03-22T10:43:23.686Z,8.07
2023-03-22T10:45:53.296Z,8.65
2023-03-22T10:48:33.601Z,7.07
2023-03-22T10:51:01.294Z,9.93
2023-03-22T10:53:45.706Z,10.70
2023-03-22T10:56:15.807Z,8.88
2023-03-22T10:58:42.648Z,9.32
2023-03-22T11:01:12.714Z,12.70
2023-03-22T11:03:49.526Z,9.85
2023-03-22T11:06:23.438Z,6.18
2023-03-22T11:08:56.817Z,10.48
2023-03-22T11:11:45.225Z,9.38
2023-03-22T11:14:20.392Z,9.13
2023-03-22T11:17:14.126Z,8.80
2023-03-22T11:19:50.340Z,14.10
2023-03-22T11:22:37.731Z,6.82
2023-03-22T11:25:13.597Z,12.48
2023-03-22T11:27:51.181Z,13.27
2023-03-22T11:30:22.914Z,14.45
2023-03-22T11:32:59.210Z,11.13
2023-03-22T11:35:29.276Z,13.48
2023-03-22T11:37:56.602Z,11.25
2023-03-22T11:40:26.384Z,9.90
2023-03-22T11:42:56.476Z,17.10
2023-03-22T11:45:29.652Z,12.43
2023-03-22T11:48:06.596Z,10.60
2023-03-22T11:50:38.255Z,11.60
2023-03-22T11:53:12.219Z,6.33
2023-03-22T11:55:39.365Z,11.38
2023-03-22T11:58:06.761Z,9.60
2023-03-22T12:00:38.626Z,18.35
2023-03-22T12:03:13.844Z,9.43
2023-03-22T12:05:44.490Z,7.55
2023-03-22T12:08:33.419Z,8.73
2023-03-22T12:11:11.416Z,11.20
2023-03-22T12:13:54.496Z,8.90
2023-03-22T12:16:38.942Z,8.77
2023-03-22T12:19:41.583Z,6.85
2023-03-22T12:22:16.050Z,13.88
2023-03-22T12:24:43.122Z,13.52
2023-03-22T12:27:31.322Z,7.05
2023-03-22T12:30:04.101Z,9.98
2023-03-22T12:32:36.130Z,11.10
2023-03-22T12:35:16.731Z,9.10
2023-03-22T12:37:48.426Z,10.57
2023-03-22T12:40:27.337Z,7.60
2023-03-22T12:43:18.798Z,5.97
2023-03-22T12:45:49.972Z,8.15
2023-03-22T12:48:30.849Z,8.13
2023-03-22T12:51:05.545Z,7.45
2023-03-22T12:53:42.347Z,10.30
2023-03-22T12:56:16.355Z,6.40
2023-03-22T12:58:48.945Z,8.50
2023-03-22T13:01:56.791Z,10.52
2023-03-22T13:04:51.246Z,8.52
2023-03-22T13:07:52.089Z,6.90
2023-03-22T13:11:02.041Z,8.02
2023-03-22T13:13:42.169Z,6.72
2023-03-22T13:16:22.701Z,8.07
2023-03-22T13:19:17.324Z,7.95
2023-03-22T13:21:44.090Z,9.13
2023-03-22T13:24:15.362Z,9.75
2023-03-22T13:26:51.598Z,9.32
2023-03-22T13:29:36.215Z,9.88
2023-03-22T13:32:33.601Z,7.38
2023-03-22T13:35:00.867Z,12.57
2023-03-22T13:37:37.178Z,7.65
2023-03-22T13:40:22.117Z,6.90
2023-03-22T13:42:50.677Z,8.98
2023-03-22T13:45:33.331Z,8.23
2023-03-22T13:48:12.326Z,10.10
2023-03-22T13:50:40.038Z,9.23
2023-03-22T13:53:21.527Z,12.43
2023-03-22T13:56:07.353Z,6.78
2023-03-22T13:58:41.241Z,5.63
2023-03-22T14:01:16.584Z,8.55
2023-03-22T14:03:45.713Z,8.43
2023-03-22T14:06:31.805Z,8.00
2023-03-22T14:09:02.561Z,8.55
2023-03-22T14:11:43.882Z,9.25
2023-03-22T14:14:19.305Z,12.35
2023-03-22T14:16:51.557Z,7.65
2023-03-22T14:19:25.717Z,14.57
